sensor_id;sensor_type;location;lat;lon;timestamp;P1;durP1;ratioP1;P2;durP2;ratioP2
65463;SDS011;52063;45.110;9.870;2023-02-15T00:01:51;19.03;;;14.53;;
65463;SDS011;52063;45.110;9.870;2023-02-15T00:04:18;20.27;;;14.63;;
65463;SDS011;52063;45.110;9.870;2023-02-15T00:06:45;19.33;;;15.07;;
65463;SDS011;52063;45.110;9.870;2023-02-15T00:09:10;19.60;;;14.70;;
65463;SDS011;52063;45.110;9.870;2023-02-15T00:11:36;21.83;;;14.35;;
65463;SDS011;52063;45.110;9.870;2023-02-15T00:14:26;17.70;;;13.83;;
65463;SDS011;52063;45.110;9.870;2023-02-15T00:16:51;20.00;;;13.68;;
65463;SDS011;52063;45.110;9.870;2023-02-15T00:19:18;19.58;;;14.15;;
65463;SDS011;52063;45.110;9.870;2023-02-15T00:21:46;19.20;;;14.88;;
65463;SDS011;52063;45.110;9.870;2023-02-15T00:24:13;20.88;;;13.73;;
65463;SDS011;52063;45.110;9.870;2023-02-15T00:26:40;18.27;;;13.90;;
65463;SDS011;52063;45.110;9.870;2023-02-15T00:29:06;21.15;;;15.55;;
65463;SDS011;52063;45.110;9.870;2023-02-15T00:31:32;19.40;;;15.68;;
65463;SDS011;52063;45.110;9.870;2023-02-15T00:34:02;21.25;;;14.88;;
65463;SDS011;52063;45.110;9.870;2023-02-15T00:36:29;19.83;;;15.00;;
65463;SDS011;52063;45.110;9.870;2023-02-15T00:38:55;19.10;;;14.53;;
65463;SDS011;52063;45.110;9.870;2023-02-15T00:41:20;19.43;;;14.13;;
65463;SDS011;52063;45.110;9.870;2023-02-15T00:43:45;20.55;;;14.75;;
65463;SDS011;52063;45.110;9.870;2023-02-15T00:46:11;17.63;;;13.70;;
65463;SDS011;52063;45.110;9.870;2023-02-15T00:48:38;19.10;;;14.48;;
65463;SDS011;52063;45.110;9.870;2023-02-15T00:51:03;18.37;;;14.33;;
65463;SDS011;52063;45.110;9.870;2023-02-15T00:53:29;18.27;;;14.37;;
65463;SDS011;52063;45.110;9.870;2023-02-15T00:55:55;17.27;;;14.00;;
65463;SDS011;52063;45.110;9.870;2023-02-15T00:58:21;20.48;;;14.35;;
65463;SDS011;52063;45.110;9.870;2023-02-15T01:00:47;18.97;;;14.00;;
65463;SDS011;52063;45.110;9.870;2023-02-15T01:03:13;19.85;;;14.82;;
65463;SDS011;52063;45.110;9.870;2023-02-15T01:05:41;22.65;;;15.20;;
65463;SDS011;52063;45.110;9.870;2023-02-15T01:08:06;18.33;;;14.17;;
65463;SDS011;52063;45.110;9.870;2023-02-15T01:10:33;19.92;;;14.52;;
65463;SDS011;52063;45.110;9.870;2023-02-15T01:12:59;19.27;;;14.35;;
65463;SDS011;52063;45.110;9.870;2023-02-15T01:15:25;18.52;;;14.10;;
65463;SDS011;52063;45.110;9.870;2023-02-15T01:17:51;20.50;;;14.90;;
65463;SDS011;52063;45.110;9.870;2023-02-15T01:20:21;18.10;;;13.68;;
65463;SDS011;52063;45.110;9.870;2023-02-15T01:22:48;19.05;;;14.57;;
65463;SDS011;52063;45.110;9.870;2023-02-15T01:25:18;20.30;;;14.52;;
65463;SDS011;52063;45.110;9.870;2023-02-15T01:27:44;18.70;;;14.07;;
65463;SDS011;52063;45.110;9.870;2023-02-15T01:30:12;20.55;;;15.57;;
65463;SDS011;52063;45.110;9.870;2023-02-15T01:32:38;18.92;;;14.30;;
65463;SDS011;52063;45.110;9.870;2023-02-15T01:35:04;18.17;;;13.93;;
65463;SDS011;52063;45.110;9.870;2023-02-15T01:37:30;19.92;;;15.20;;
65463;SDS011;52063;45.110;9.870;2023-02-15T01:39:57;20.05;;;14.27;;
65463;SDS011;52063;45.110;9.870;2023-02-15T01:42:23;19.13;;;14.03;;
65463;SDS011;52063;45.110;9.870;2023-02-15T01:44:51;18.33;;;13.43;;
65463;SDS011;52063;45.110;9.870;2023-02-15T01:47:37;19.83;;;13.68;;
65463;SDS011;52063;45.110;9.870;2023-02-15T01:50:15;18.30;;;14.20;;
65463;SDS011;52063;45.110;9.870;2023-02-15T01:52:45;19.03;;;14.17;;
65463;SDS011;52063;45.110;9.870;2023-02-15T01:55:14;17.92;;;13.60;;
65463;SDS011;52063;45.110;9.870;2023-02-15T01:57:41;19.88;;;15.15;;
65463;SDS011;52063;45.110;9.870;2023-02-15T02:00:07;17.60;;;13.60;;
65463;SDS011;52063;45.110;9.870;2023-02-15T02:02:37;18.83;;;13.38;;
65463;SDS011;52063;45.110;9.870;2023-02-15T02:05:04;18.47;;;14.37;;
65463;SDS011;52063;45.110;9.870;2023-02-15T02:07:34;18.92;;;14.18;;
65463;SDS011;52063;45.110;9.870;2023-02-15T02:10:04;17.50;;;14.10;;
65463;SDS011;52063;45.110;9.870;2023-02-15T02:12:32;19.23;;;13.63;;
65463;SDS011;52063;45.110;9.870;2023-02-15T02:14:59;20.30;;;15.43;;
65463;SDS011;52063;45.110;9.870;2023-02-15T02:20:29;16.67;;;13.00;;
65463;SDS011;52063;45.110;9.870;2023-02-15T02:34:28;17.92;;;13.55;;
65463;SDS011;52063;45.110;9.870;2023-02-15T02:37:10;18.10;;;13.77;;
65463;SDS011;52063;45.110;9.870;2023-02-15T02:43:02;18.23;;;13.95;;
65463;SDS011;52063;45.110;9.870;2023-02-15T02:45:35;17.50;;;13.47;;
65463;SDS011;52063;45.110;9.870;2023-02-15T02:48:08;18.95;;;13.30;;
65463;SDS011;52063;45.110;9.870;2023-02-15T02:50:38;18.63;;;14.63;;
65463;SDS011;52063;45.110;9.870;2023-02-15T02:53:05;19.08;;;14.40;;
65463;SDS011;52063;45.110;9.870;2023-02-15T02:55:47;20.27;;;13.83;;
65463;SDS011;52063;45.110;9.870;2023-02-15T02:58:17;17.63;;;13.43;;
65463;SDS011;52063;45.110;9.870;2023-02-15T03:00:48;17.05;;;13.48;;
65463;SDS011;52063;45.110;9.870;2023-02-15T03:03:36;17.63;;;13.57;;
65463;SDS011;52063;45.110;9.870;2023-02-15T03:06:05;18.48;;;13.60;;
65463;SDS011;52063;45.110;9.870;2023-02-15T03:08:38;18.20;;;13.30;;
65463;SDS011;52063;45.110;9.870;2023-02-15T03:11:07;18.25;;;13.70;;
65463;SDS011;52063;45.110;9.870;2023-02-15T03:13:33;16.73;;;13.50;;
65463;SDS011;52063;45.110;9.870;2023-02-15T03:15:59;17.25;;;13.60;;
65463;SDS011;52063;45.110;9.870;2023-02-15T03:18:46;18.75;;;13.32;;
65463;SDS011;52063;45.110;9.870;2023-02-15T03:21:20;18.90;;;13.57;;
65463;SDS011;52063;45.110;9.870;2023-02-15T03:23:52;17.00;;;12.82;;
65463;SDS011;52063;45.110;9.870;2023-02-15T03:26:20;17.95;;;14.07;;
65463;SDS011;52063;45.110;9.870;2023-02-15T03:28:46;17.10;;;13.15;;
65463;SDS011;52063;45.110;9.870;2023-02-15T03:31:14;17.90;;;12.68;;
65463;SDS011;52063;45.110;9.870;2023-02-15T03:33:42;17.50;;;13.50;;
65463;SDS011;52063;45.110;9.870;2023-02-15T03:36:21;17.73;;;12.90;;
65463;SDS011;52063;45.110;9.870;2023-02-15T03:39:01;18.15;;;13.40;;
65463;SDS011;52063;45.110;9.870;2023-02-15T03:41:42;17.83;;;13.50;;
65463;SDS011;52063;45.110;9.870;2023-02-15T03:44:23;15.43;;;12.90;;
65463;SDS011;52063;45.110;9.870;2023-02-15T03:46:53;17.58;;;13.32;;
65463;SDS011;52063;45.110;9.870;2023-02-15T03:49:28;17.55;;;12.77;;
65463;SDS011;52063;45.110;9.870;2023-02-15T03:52:04;16.88;;;13.10;;
65463;SDS011;52063;45.110;9.870;2023-02-15T03:54:31;16.50;;;12.30;;
65463;SDS011;52063;45.110;9.870;2023-02-15T03:57:28;17.98;;;13.05;;
65463;SDS011;52063;45.110;9.870;2023-02-15T04:00:17;16.08;;;12.85;;
65463;SDS011;52063;45.110;9.870;2023-02-15T04:03:26;17.80;;;13.35;;
65463;SDS011;52063;45.110;9.870;2023-02-15T04:05:54;14.85;;;11.82;;
65463;SDS011;52063;45.110;9.870;2023-02-15T04:08:19;15.13;;;11.83;;
65463;SDS011;52063;45.110;9.870;2023-02-15T04:10:44;15.70;;;12.57;;
65463;SDS011;52063;45.110;9.870;2023-02-15T04:13:23;18.83;;;13.90;;
65463;SDS011;52063;45.110;9.870;2023-02-15T04:15:54;17.15;;;12.98;;
65463;SDS011;52063;45.110;9.870;2023-02-15T04:18:33;16.67;;;12.80;;
65463;SDS011;52063;45.110;9.870;2023-02-15T04:21:19;17.33;;;13.37;;
65463;SDS011;52063;45.110;9.870;2023-02-15T04:24:05;15.70;;;12.40;;
65463;SDS011;52063;45.110;9.870;2023-02-15T04:26:49;15.45;;;12.60;;
65463;SDS011;52063;45.110;9.870;2023-02-15T04:29:18;17.38;;;13.27;;
65463;SDS011;52063;45.110;9.870;2023-02-15T04:31:45;16.83;;;13.65;;
65463;SDS011;52063;45.110;9.870;2023-02-15T04:34:10;17.80;;;13.03;;
65463;SDS011;52063;45.110;9.870;2023-02-15T04:36:36;15.18;;;11.75;;
65463;SDS011;52063;45.110;9.870;2023-02-15T04:39:02;17.30;;;13.10;;
65463;SDS011;52063;45.110;9.870;2023-02-15T04:41:28;14.97;;;11.50;;
65463;SDS011;52063;45.110;9.870;2023-02-15T04:43:53;16.97;;;13.37;;
65463;SDS011;52063;45.110;9.870;2023-02-15T04:46:19;15.70;;;12.80;;
65463;SDS011;52063;45.110;9.870;2023-02-15T04:48:44;17.58;;;13.13;;
65463;SDS011;52063;45.110;9.870;2023-02-15T04:51:10;15.07;;;12.33;;
65463;SDS011;52063;45.110;9.870;2023-02-15T04:53:35;15.97;;;12.17;;
65463;SDS011;52063;45.110;9.870;2023-02-15T04:56:01;15.77;;;11.93;;
65463;SDS011;52063;45.110;9.870;2023-02-15T04:58:27;15.63;;;12.50;;
65463;SDS011;52063;45.110;9.870;2023-02-15T05:00:55;16.95;;;13.18;;
65463;SDS011;52063;45.110;9.870;2023-02-15T05:03:20;17.07;;;13.07;;
65463;SDS011;52063;45.110;9.870;2023-02-15T05:05:46;15.68;;;12.85;;
65463;SDS011;52063;45.110;9.870;2023-02-15T05:08:11;17.57;;;12.80;;
65463;SDS011;52063;45.110;9.870;2023-02-15T05:10:37;16.27;;;12.43;;
65463;SDS011;52063;45.110;9.870;2023-02-15T05:13:02;18.33;;;13.33;;
65463;SDS011;52063;45.110;9.870;2023-02-15T05:15:28;16.30;;;13.10;;
65463;SDS011;52063;45.110;9.870;2023-02-15T05:17:53;17.60;;;12.73;;
65463;SDS011;52063;45.110;9.870;2023-02-15T05:20:18;17.87;;;13.33;;
65463;SDS011;52063;45.110;9.870;2023-02-15T05:22:44;14.80;;;12.37;;
65463;SDS011;52063;45.110;9.870;2023-02-15T05:25:09;17.52;;;12.38;;
65463;SDS011;52063;45.110;9.870;2023-02-15T05:27:53;15.30;;;12.23;;
65463;SDS011;52063;45.110;9.870;2023-02-15T05:30:37;16.93;;;11.73;;
65463;SDS011;52063;45.110;9.870;2023-02-15T05:33:05;15.10;;;12.07;;
65463;SDS011;52063;45.110;9.870;2023-02-15T05:35:31;15.18;;;11.43;;
65463;SDS011;52063;45.110;9.870;2023-02-15T05:37:57;16.90;;;12.48;;
65463;SDS011;52063;45.110;9.870;2023-02-15T05:40:23;15.83;;;11.53;;
65463;SDS011;52063;45.110;9.870;2023-02-15T05:42:48;14.80;;;11.50;;
65463;SDS011;52063;45.110;9.870;2023-02-15T05:45:14;14.02;;;11.50;;
65463;SDS011;52063;45.110;9.870;2023-02-15T05:47:40;13.13;;;11.33;;
65463;SDS011;52063;45.110;9.870;2023-02-15T05:50:06;15.07;;;12.02;;
65463;SDS011;52063;45.110;9.870;2023-02-15T05:52:32;15.98;;;11.70;;
65463;SDS011;52063;45.110;9.870;2023-02-15T05:54:57;16.30;;;12.67;;
65463;SDS011;52063;45.110;9.870;2023-02-15T05:57:25;15.23;;;12.20;;
65463;SDS011;52063;45.110;9.870;2023-02-15T05:59:51;14.98;;;11.32;;
65463;SDS011;52063;45.110;9.870;2023-02-15T06:02:16;14.90;;;11.53;;
65463;SDS011;52063;45.110;9.870;2023-02-15T06:04:42;15.00;;;11.70;;
65463;SDS011;52063;45.110;9.870;2023-02-15T06:07:07;13.83;;;11.33;;
65463;SDS011;52063;45.110;9.870;2023-02-15T06:09:33;14.60;;;11.10;;
65463;SDS011;52063;45.110;9.870;2023-02-15T06:11:58;13.50;;;10.80;;
65463;SDS011;52063;45.110;9.870;2023-02-15T06:14:24;12.83;;;10.47;;
65463;SDS011;52063;45.110;9.870;2023-02-15T06:16:49;12.98;;;10.75;;
65463;SDS011;52063;45.110;9.870;2023-02-15T06:19:14;14.33;;;11.30;;
65463;SDS011;52063;45.110;9.870;2023-02-15T06:21:40;16.37;;;11.23;;
65463;SDS011;52063;45.110;9.870;2023-02-15T06:24:05;12.77;;;10.00;;
65463;SDS011;52063;45.110;9.870;2023-02-15T06:26:32;13.57;;;10.93;;
65463;SDS011;52063;45.110;9.870;2023-02-15T06:28:58;12.60;;;10.80;;
65463;SDS011;52063;45.110;9.870;2023-02-15T06:31:23;13.15;;;10.32;;
65463;SDS011;52063;45.110;9.870;2023-02-15T06:33:49;13.90;;;10.80;;
65463;SDS011;52063;45.110;9.870;2023-02-15T06:36:14;14.20;;;10.67;;
65463;SDS011;52063;45.110;9.870;2023-02-15T06:38:40;12.45;;;10.60;;
65463;SDS011;52063;45.110;9.870;2023-02-15T06:41:05;13.30;;;10.83;;
65463;SDS011;52063;45.110;9.870;2023-02-15T06:43:30;12.27;;;10.33;;
65463;SDS011;52063;45.110;9.870;2023-02-15T06:45:56;12.27;;;10.07;;
65463;SDS011;52063;45.110;9.870;2023-02-15T06:48:21;13.00;;;10.85;;
65463;SDS011;52063;45.110;9.870;2023-02-15T06:50:47;11.97;;;9.90;;
65463;SDS011;52063;45.110;9.870;2023-02-15T06:53:12;12.27;;;9.63;;
65463;SDS011;52063;45.110;9.870;2023-02-15T06:55:38;13.90;;;9.83;;
65463;SDS011;52063;45.110;9.870;2023-02-15T06:58:03;11.55;;;8.95;;
65463;SDS011;52063;45.110;9.870;2023-02-15T07:00:28;10.73;;;9.40;;
65463;SDS011;52063;45.110;9.870;2023-02-15T07:02:54;10.47;;;8.70;;
65463;SDS011;52063;45.110;9.870;2023-02-15T07:05:21;12.43;;;8.90;;
65463;SDS011;52063;45.110;9.870;2023-02-15T07:07:47;10.57;;;8.98;;
65463;SDS011;52063;45.110;9.870;2023-02-15T07:10:12;9.50;;;8.50;;
65463;SDS011;52063;45.110;9.870;2023-02-15T07:12:38;9.60;;;8.37;;
65463;SDS011;52063;45.110;9.870;2023-02-15T07:15:06;9.23;;;8.10;;
65463;SDS011;52063;45.110;9.870;2023-02-15T07:17:34;9.13;;;8.10;;
65463;SDS011;52063;45.110;9.870;2023-02-15T07:20:00;10.68;;;8.82;;
65463;SDS011;52063;45.110;9.870;2023-02-15T07:22:26;9.50;;;7.85;;
65463;SDS011;52063;45.110;9.870;2023-02-15T07:24:52;9.20;;;8.07;;
65463;SDS011;52063;45.110;9.870;2023-02-15T07:27:20;9.88;;;8.25;;
65463;SDS011;52063;45.110;9.870;2023-02-15T07:29:46;10.00;;;8.18;;
65463;SDS011;52063;45.110;9.870;2023-02-15T07:32:12;9.32;;;7.90;;
65463;SDS011;52063;45.110;9.870;2023-02-15T07:34:38;10.43;;;7.90;;
65463;SDS011;52063;45.110;9.870;2023-02-15T07:37:05;9.70;;;8.27;;
65463;SDS011;52063;45.110;9.870;2023-02-15T07:39:30;10.57;;;8.37;;
65463;SDS011;52063;45.110;9.870;2023-02-15T07:41:56;9.10;;;8.07;;
65463;SDS011;52063;45.110;9.870;2023-02-15T07:44:28;9.30;;;8.20;;
65463;SDS011;52063;45.110;9.870;2023-02-15T07:46:54;9.07;;;7.90;;
65463;SDS011;52063;45.110;9.870;2023-02-15T07:49:19;9.43;;;8.40;;
65463;SDS011;52063;45.110;9.870;2023-02-15T07:51:44;8.80;;;7.40;;
65463;SDS011;52063;45.110;9.870;2023-02-15T07:54:10;8.93;;;7.88;;
65463;SDS011;52063;45.110;9.870;2023-02-15T07:56:36;9.83;;;8.10;;
65463;SDS011;52063;45.110;9.870;2023-02-15T07:59:01;9.40;;;8.07;;
65463;SDS011;52063;45.110;9.870;2023-02-15T08:01:31;11.90;;;8.20;;
65463;SDS011;52063;45.110;9.870;2023-02-15T08:03:58;12.45;;;8.70;;
65463;SDS011;52063;45.110;9.870;2023-02-15T08:06:25;10.63;;;8.70;;
65463;SDS011;52063;45.110;9.870;2023-02-15T08:08:52;9.60;;;7.97;;
65463;SDS011;52063;45.110;9.870;2023-02-15T08:21:36;14.77;;;8.57;;
65463;SDS011;52063;45.110;9.870;2023-02-15T08:24:04;13.18;;;9.00;;
65463;SDS011;52063;45.110;9.870;2023-02-15T08:26:30;11.65;;;8.63;;
65463;SDS011;52063;45.110;9.870;2023-02-15T08:28:56;13.00;;;8.63;;
65463;SDS011;52063;45.110;9.870;2023-02-15T08:31:22;10.63;;;8.13;;
65463;SDS011;52063;45.110;9.870;2023-02-15T08:33:48;10.87;;;8.53;;
65463;SDS011;52063;45.110;9.870;2023-02-15T08:36:16;11.80;;;8.68;;
65463;SDS011;52063;45.110;9.870;2023-02-15T08:38:43;11.95;;;9.25;;
65463;SDS011;52063;45.110;9.870;2023-02-15T08:41:13;14.33;;;8.63;;
65463;SDS011;52063;45.110;9.870;2023-02-15T08:43:40;11.48;;;9.48;;
65463;SDS011;52063;45.110;9.870;2023-02-15T08:46:07;18.45;;;11.95;;
65463;SDS011;52063;45.110;9.870;2023-02-15T08:48:33;38.17;;;24.23;;
65463;SDS011;52063;45.110;9.870;2023-02-15T08:50:58;35.60;;;24.00;;
65463;SDS011;52063;45.110;9.870;2023-02-15T08:53:30;42.85;;;29.77;;
65463;SDS011;52063;45.110;9.870;2023-02-15T08:55:56;42.17;;;28.73;;
65463;SDS011;52063;45.110;9.870;2023-02-15T08:58:22;49.35;;;30.55;;
65463;SDS011;52063;45.110;9.870;2023-02-15T09:00:48;46.83;;;30.73;;
65463;SDS011;52063;45.110;9.870;2023-02-15T09:03:13;45.00;;;29.60;;
65463;SDS011;52063;45.110;9.870;2023-02-15T09:05:38;51.30;;;32.80;;
65463;SDS011;52063;45.110;9.870;2023-02-15T09:08:04;46.40;;;31.23;;
65463;SDS011;52063;45.110;9.870;2023-02-15T09:10:29;46.70;;;31.23;;
65463;SDS011;52063;45.110;9.870;2023-02-15T09:12:55;49.30;;;32.75;;
65463;SDS011;52063;45.110;9.870;2023-02-15T09:15:20;46.50;;;29.80;;
65463;SDS011;52063;45.110;9.870;2023-02-15T09:17:46;50.13;;;31.73;;
65463;SDS011;52063;45.110;9.870;2023-02-15T09:20:11;50.53;;;32.60;;
65463;SDS011;52063;45.110;9.870;2023-02-15T09:22:37;49.00;;;32.80;;
65463;SDS011;52063;45.110;9.870;2023-02-15T09:25:02;46.27;;;31.50;;
65463;SDS011;52063;45.110;9.870;2023-02-15T09:27:29;58.70;;;32.67;;
65463;SDS011;52063;45.110;9.870;2023-02-15T09:29:54;48.05;;;30.85;;
65463;SDS011;52063;45.110;9.870;2023-02-15T09:32:20;47.97;;;32.00;;
65463;SDS011;52063;45.110;9.870;2023-02-15T09:34:47;49.33;;;30.73;;
65463;SDS011;52063;45.110;9.870;2023-02-15T09:37:13;41.60;;;27.67;;
65463;SDS011;52063;45.110;9.870;2023-02-15T09:39:39;43.15;;;29.25;;
65463;SDS011;52063;45.110;9.870;2023-02-15T09:47:23;39.38;;;27.65;;
65463;SDS011;52063;45.110;9.870;2023-02-15T09:55:36;41.40;;;27.63;;
65463;SDS011;52063;45.110;9.870;2023-02-15T10:04:14;39.83;;;28.00;;
65463;SDS011;52063;45.110;9.870;2023-02-15T10:09:36;38.40;;;25.90;;
65463;SDS011;52063;45.110;9.870;2023-02-15T10:15:14;39.03;;;26.85;;
65463;SDS011;52063;45.110;9.870;2023-02-15T10:26:18;39.75;;;25.40;;
65463;SDS011;52063;45.110;9.870;2023-02-15T10:34:01;33.78;;;23.75;;
65463;SDS011;52063;45.110;9.870;2023-02-15T10:41:59;32.83;;;23.45;;
65463;SDS011;52063;45.110;9.870;2023-02-15T10:53:09;32.78;;;23.05;;
65463;SDS011;52063;45.110;9.870;2023-02-15T10:55:47;34.33;;;23.13;;
65463;SDS011;52063;45.110;9.870;2023-02-15T10:58:22;33.30;;;23.55;;
65463;SDS011;52063;45.110;9.870;2023-02-15T11:00:56;34.35;;;22.75;;
65463;SDS011;52063;45.110;9.870;2023-02-15T11:03:48;32.63;;;22.27;;
65463;SDS011;52063;45.110;9.870;2023-02-15T11:06:34;34.10;;;23.27;;
65463;SDS011;52063;45.110;9.870;2023-02-15T11:09:02;30.17;;;21.42;;
65463;SDS011;52063;45.110;9.870;2023-02-15T11:11:32;34.42;;;22.73;;
65463;SDS011;52063;45.110;9.870;2023-02-15T11:14:05;30.55;;;22.25;;
65463;SDS011;52063;45.110;9.870;2023-02-15T11:16:39;32.83;;;22.30;;
65463;SDS011;52063;45.110;9.870;2023-02-15T11:19:14;29.83;;;21.67;;
65463;SDS011;52063;45.110;9.870;2023-02-15T11:21:53;31.65;;;22.33;;
65463;SDS011;52063;45.110;9.870;2023-02-15T11:24:26;30.38;;;22.02;;
65463;SDS011;52063;45.110;9.870;2023-02-15T11:29:44;32.00;;;21.53;;
65463;SDS011;52063;45.110;9.870;2023-02-15T11:35:04;31.48;;;21.75;;
65463;SDS011;52063;45.110;9.870;2023-02-15T11:43:03;32.47;;;22.17;;
65463;SDS011;52063;45.110;9.870;2023-02-15T11:45:32;28.42;;;20.15;;
65463;SDS011;52063;45.110;9.870;2023-02-15T11:47:59;30.88;;;21.52;;
65463;SDS011;52063;45.110;9.870;2023-02-15T11:50:26;33.65;;;21.98;;
65463;SDS011;52063;45.110;9.870;2023-02-15T11:52:54;30.55;;;21.60;;
65463;SDS011;52063;45.110;9.870;2023-02-15T11:55:23;29.13;;;20.37;;
65463;SDS011;52063;45.110;9.870;2023-02-15T12:00:58;29.73;;;20.33;;
65463;SDS011;52063;45.110;9.870;2023-02-15T12:03:29;26.95;;;19.52;;
65463;SDS011;52063;45.110;9.870;2023-02-15T12:06:25;30.95;;;19.95;;
65463;SDS011;52063;45.110;9.870;2023-02-15T12:08:55;27.80;;;18.73;;
65463;SDS011;52063;45.110;9.870;2023-02-15T12:11:35;27.85;;;19.15;;
65463;SDS011;52063;45.110;9.870;2023-02-15T12:14:03;25.80;;;18.83;;
65463;SDS011;52063;45.110;9.870;2023-02-15T12:16:32;30.02;;;20.17;;
65463;SDS011;52063;45.110;9.870;2023-02-15T12:19:05;27.98;;;19.33;;
65463;SDS011;52063;45.110;9.870;2023-02-15T12:21:56;27.17;;;19.10;;
65463;SDS011;52063;45.110;9.870;2023-02-15T12:24:44;26.52;;;18.30;;
65463;SDS011;52063;45.110;9.870;2023-02-15T12:27:15;25.15;;;18.25;;
65463;SDS011;52063;45.110;9.870;2023-02-15T12:29:44;25.55;;;18.58;;
65463;SDS011;52063;45.110;9.870;2023-02-15T12:32:16;29.33;;;20.58;;
65463;SDS011;52063;45.110;9.870;2023-02-15T12:34:44;27.73;;;18.53;;
65463;SDS011;52063;45.110;9.870;2023-02-15T12:37:15;26.42;;;18.55;;
65463;SDS011;52063;45.110;9.870;2023-02-15T12:39:56;26.10;;;18.38;;
65463;SDS011;52063;45.110;9.870;2023-02-15T12:42:23;25.52;;;17.67;;
65463;SDS011;52063;45.110;9.870;2023-02-15T12:45:00;27.45;;;17.85;;
65463;SDS011;52063;45.110;9.870;2023-02-15T12:47:27;25.53;;;17.23;;
65463;SDS011;52063;45.110;9.870;2023-02-15T12:52:34;29.15;;;18.70;;
65463;SDS011;52063;45.110;9.870;2023-02-15T12:57:48;25.50;;;17.83;;
65463;SDS011;52063;45.110;9.870;2023-02-15T13:02:47;26.70;;;18.02;;
65463;SDS011;52063;45.110;9.870;2023-02-15T13:05:22;22.20;;;17.13;;
65463;SDS011;52063;45.110;9.870;2023-02-15T13:07:56;26.60;;;18.27;;
65463;SDS011;52063;45.110;9.870;2023-02-15T13:10:25;25.65;;;17.88;;
65463;SDS011;52063;45.110;9.870;2023-02-15T13:12:53;24.70;;;17.23;;
65463;SDS011;52063;45.110;9.870;2023-02-15T13:15:44;24.40;;;16.05;;
65463;SDS011;52063;45.110;9.870;2023-02-15T13:18:14;24.17;;;17.15;;
65463;SDS011;52063;45.110;9.870;2023-02-15T13:20:42;22.57;;;17.03;;
65463;SDS011;52063;45.110;9.870;2023-02-15T13:23:31;22.88;;;16.05;;
65463;SDS011;52063;45.110;9.870;2023-02-15T13:25:56;24.63;;;16.85;;
65463;SDS011;52063;45.110;9.870;2023-02-15T13:28:25;24.20;;;16.95;;
65463;SDS011;52063;45.110;9.870;2023-02-15T13:34:22;25.63;;;17.73;;
65463;SDS011;52063;45.110;9.870;2023-02-15T13:39:37;24.90;;;16.58;;
65463;SDS011;52063;45.110;9.870;2023-02-15T13:42:24;26.27;;;17.75;;
65463;SDS011;52063;45.110;9.870;2023-02-15T13:47:45;25.13;;;17.30;;
65463;SDS011;52063;45.110;9.870;2023-02-15T13:55:37;21.95;;;15.60;;
65463;SDS011;52063;45.110;9.870;2023-02-15T14:00:48;25.20;;;15.90;;
65463;SDS011;52063;45.110;9.870;2023-02-15T14:20:39;21.85;;;14.32;;
65463;SDS011;52063;45.110;9.870;2023-02-15T14:23:11;21.75;;;14.05;;
65463;SDS011;52063;45.110;9.870;2023-02-15T14:25:47;19.38;;;14.18;;
65463;SDS011;52063;45.110;9.870;2023-02-15T14:28:19;21.83;;;13.97;;
65463;SDS011;52063;45.110;9.870;2023-02-15T14:30:53;17.90;;;12.65;;
65463;SDS011;52063;45.110;9.870;2023-02-15T14:33:35;18.98;;;13.43;;
65463;SDS011;52063;45.110;9.870;2023-02-15T14:36:04;21.27;;;15.13;;
65463;SDS011;52063;45.110;9.870;2023-02-15T14:49:11;20.58;;;13.63;;
65463;SDS011;52063;45.110;9.870;2023-02-15T14:59:25;18.05;;;13.80;;
65463;SDS011;52063;45.110;9.870;2023-02-15T15:01:53;16.20;;;12.23;;
65463;SDS011;52063;45.110;9.870;2023-02-15T15:04:23;20.48;;;13.65;;
65463;SDS011;52063;45.110;9.870;2023-02-15T15:06:57;17.10;;;13.00;;
65463;SDS011;52063;45.110;9.870;2023-02-15T15:09:26;18.67;;;13.38;;
65463;SDS011;52063;45.110;9.870;2023-02-15T15:11:53;16.55;;;12.65;;
65463;SDS011;52063;45.110;9.870;2023-02-15T15:14:38;15.53;;;11.97;;
65463;SDS011;52063;45.110;9.870;2023-02-15T15:17:09;18.25;;;12.45;;
65463;SDS011;52063;45.110;9.870;2023-02-15T15:22:18;16.75;;;12.30;;
65463;SDS011;52063;45.110;9.870;2023-02-15T15:25:00;16.25;;;11.30;;
65463;SDS011;52063;45.110;9.870;2023-02-15T15:27:36;14.83;;;11.63;;
65463;SDS011;52063;45.110;9.870;2023-02-15T15:49:56;14.45;;;11.13;;
65463;SDS011;52063;45.110;9.870;2023-02-15T15:52:22;14.25;;;10.85;;
65463;SDS011;52063;45.110;9.870;2023-02-15T15:54:54;14.77;;;10.88;;
65463;SDS011;52063;45.110;9.870;2023-02-15T15:57:27;14.50;;;11.32;;
65463;SDS011;52063;45.110;9.870;2023-02-15T15:59:55;13.83;;;10.70;;
65463;SDS011;52063;45.110;9.870;2023-02-15T16:02:24;14.93;;;11.95;;
65463;SDS011;52063;45.110;9.870;2023-02-15T16:04:49;14.20;;;10.50;;
65463;SDS011;52063;45.110;9.870;2023-02-15T16:09:56;15.40;;;10.60;;
65463;SDS011;52063;45.110;9.870;2023-02-15T16:12:22;14.00;;;10.70;;
65463;SDS011;52063;45.110;9.870;2023-02-15T16:14:48;12.38;;;10.63;;
65463;SDS011;52063;45.110;9.870;2023-02-15T16:17:20;13.25;;;9.93;;
65463;SDS011;52063;45.110;9.870;2023-02-15T16:19:48;13.55;;;10.43;;
65463;SDS011;52063;45.110;9.870;2023-02-15T16:22:16;13.90;;;10.38;;
65463;SDS011;52063;45.110;9.870;2023-02-15T16:27:36;14.90;;;10.35;;
65463;SDS011;52063;45.110;9.870;2023-02-15T16:30:19;12.82;;;9.82;;
65463;SDS011;52063;45.110;9.870;2023-02-15T16:33:06;11.00;;;9.55;;
65463;SDS011;52063;45.110;9.870;2023-02-15T16:35:32;13.30;;;10.27;;
65463;SDS011;52063;45.110;9.870;2023-02-15T16:37:58;16.43;;;9.80;;
65463;SDS011;52063;45.110;9.870;2023-02-15T16:42:49;12.50;;;9.43;;
65463;SDS011;52063;45.110;9.870;2023-02-15T16:45:16;11.48;;;9.50;;
65463;SDS011;52063;45.110;9.870;2023-02-15T16:47:45;11.65;;;9.25;;
65463;SDS011;52063;45.110;9.870;2023-02-15T16:50:19;12.57;;;10.18;;
65463;SDS011;52063;45.110;9.870;2023-02-15T16:52:46;11.67;;;9.20;;
65463;SDS011;52063;45.110;9.870;2023-02-15T16:55:21;11.27;;;9.50;;
65463;SDS011;52063;45.110;9.870;2023-02-15T16:57:48;12.32;;;9.18;;
65463;SDS011;52063;45.110;9.870;2023-02-15T17:00:25;12.67;;;8.87;;
65463;SDS011;52063;45.110;9.870;2023-02-15T17:03:01;10.57;;;8.73;;
65463;SDS011;52063;45.110;9.870;2023-02-15T17:05:32;12.07;;;9.45;;
65463;SDS011;52063;45.110;9.870;2023-02-15T17:08:10;11.23;;;9.10;;
65463;SDS011;52063;45.110;9.870;2023-02-15T17:10:40;12.43;;;9.70;;
65463;SDS011;52063;45.110;9.870;2023-02-15T17:13:10;10.63;;;8.13;;
65463;SDS011;52063;45.110;9.870;2023-02-15T17:15:37;10.70;;;9.00;;
65463;SDS011;52063;45.110;9.870;2023-02-15T17:18:05;12.88;;;9.15;;
65463;SDS011;52063;45.110;9.870;2023-02-15T17:20:34;12.05;;;9.23;;
65463;SDS011;52063;45.110;9.870;2023-02-15T17:23:03;11.70;;;8.88;;
65463;SDS011;52063;45.110;9.870;2023-02-15T17:25:37;11.47;;;9.10;;
65463;SDS011;52063;45.110;9.870;2023-02-15T17:28:04;10.95;;;9.02;;
65463;SDS011;52063;45.110;9.870;2023-02-15T17:30:32;11.45;;;9.27;;
65463;SDS011;52063;45.110;9.870;2023-02-15T17:32:59;11.35;;;9.18;;
65463;SDS011;52063;45.110;9.870;2023-02-15T17:35:27;12.45;;;9.93;;
65463;SDS011;52063;45.110;9.870;2023-02-15T17:38:04;10.63;;;8.77;;
65463;SDS011;52063;45.110;9.870;2023-02-15T17:40:43;9.90;;;8.55;;
65463;SDS011;52063;45.110;9.870;2023-02-15T17:43:09;11.97;;;9.53;;
65463;SDS011;52063;45.110;9.870;2023-02-15T17:45:40;11.85;;;9.23;;